Time;durP1;ratioP1;P1;durP2;ratioP2;P2;SDS_P1;SDS_P2;PMS_P1;PMS_P2;Temp;Humidity;BMP_temperature;BMP_pressure;BME280_temperature;BME280_humidity;BME280_pressure;Samples;Min_cycle;Max_cycle;Signal;HPM_P1;HPM_P2
2021/10/12 00:00:03;;;;;;;2.50;0.70;;;9.40;99.90;;;;;;5056128;28;20446;-80
2021/10/12 00:02:29;;;;;;;1.97;1.43;;;9.40;99.90;;;;;;5055694;28;21016;-80
2021/10/12 00:04:56;;;;;;;1.73;0.60;;;9.30;99.90;;;;;;5055971;28;20449;-80
2021/10/12 00:07:23;;;;;;;1.37;0.60;;;9.30;99.90;;;;;;5055990;28;20453;-80
2021/10/12 00:09:51;;;;;;;0.80;0.57;;;9.30;99.90;;;;;;5056773;28;20533;-80
2021/10/12 00:12:18;;;;;;;0.60;0.60;;;9.30;99.90;;;;;;5055813;28;20472;-80
2021/10/12 00:14:45;;;;;;;2.00;0.50;;;9.20;99.90;;;;;;5055809;28;20468;-80
2021/10/12 00:17:12;;;;;;;0.70;0.70;;;9.20;99.90;;;;;;5055728;28;20846;-80
2021/10/12 00:19:40;;;;;;;1.80;0.60;;;9.20;99.90;;;;;;5055770;28;20456;-83
2021/10/12 00:22:08;;;;;;;1.40;0.73;;;9.20;99.90;;;;;;5055394;28;20928;-81
2021/10/12 00:24:34;;;;;;;0.77;0.77;;;9.20;99.90;;;;;;5055350;28;20446;-81
2021/10/12 00:27:02;;;;;;;1.77;0.70;;;9.10;99.90;;;;;;5055612;28;20438;-82
2021/10/12 00:29:29;;;;;;;1.60;0.60;;;9.10;99.90;;;;;;5054819;28;20445;-81
2021/10/12 00:31:56;;;;;;;2.90;0.90;;;9.10;99.90;;;;;;5055436;28;20477;-80
2021/10/12 00:34:23;;;;;;;0.90;0.90;;;9.00;99.90;;;;;;5055466;28;20453;-80
2021/10/12 00:36:49;;;;;;;0.97;0.60;;;9.10;99.90;;;;;;5055382;28;20493;-79
2021/10/12 00:39:16;;;;;;;0.80;0.60;;;9.10;99.90;;;;;;5055139;28;20442;-78
2021/10/12 00:41:44;;;;;;;1.73;1.40;;;9.00;99.90;;;;;;5055234;28;20473;-78
2021/10/12 00:44:12;;;;;;;0.50;0.50;;;9.00;99.90;;;;;;5055296;28;20453;-78
2021/10/12 00:46:39;;;;;;;1.00;0.77;;;9.00;99.90;;;;;;5055205;28;20449;-83
2021/10/12 00:49:05;;;;;;;1.17;1.00;;;9.00;99.90;;;;;;5055223;28;20448;-83
2021/10/12 00:51:32;;;;;;;0.80;0.50;;;9.00;99.90;;;;;;5055061;28;20473;-84
2021/10/12 00:53:59;;;;;;;0.77;0.77;;;9.10;99.90;;;;;;5054804;28;20941;-84
2021/10/12 00:56:26;;;;;;;2.20;0.73;;;9.10;99.90;;;;;;5055040;28;20464;-80
2021/10/12 00:58:53;;;;;;;2.20;0.70;;;9.00;99.90;;;;;;5054968;28;20489;-84
2021/10/12 01:01:21;;;;;;;0.70;0.60;;;9.00;99.90;;;;;;5054949;28;20854;-84
2021/10/12 01:03:48;;;;;;;1.50;0.60;;;9.00;99.90;;;;;;5054925;28;20457;-84
2021/10/12 01:06:15;;;;;;;1.50;1.50;;;9.00;99.90;;;;;;5054838;28;20461;-84
2021/10/12 01:08:42;;;;;;;0.63;0.40;;;9.00;99.90;;;;;;5054843;28;20840;-84
2021/10/12 01:11:10;;;;;;;2.53;0.77;;;9.00;99.90;;;;;;5054435;28;20485;-83
2021/10/12 01:13:39;;;;;;;0.73;0.67;;;9.00;99.90;;;;;;5054709;28;20453;-84
2021/10/12 01:16:06;;;;;;;1.17;1.07;;;9.00;99.90;;;;;;5054683;28;20438;-78
2021/10/12 01:18:36;;;;;;;0.60;0.60;;;9.00;99.90;;;;;;5054283;28;20485;-78
2021/10/12 01:21:04;;;;;;;1.50;1.23;;;8.90;99.90;;;;;;5054450;28;20476;-77
2021/10/12 01:23:31;;;;;;;1.17;0.80;;;8.90;99.90;;;;;;5054348;28;20484;-78
2021/10/12 01:25:57;;;;;;;2.00;1.13;;;8.90;99.90;;;;;;5054142;28;20972;-77
2021/10/12 01:28:24;;;;;;;1.70;1.07;;;9.00;99.90;;;;;;5054188;28;20438;-77
2021/10/12 01:30:51;;;;;;;1.33;1.07;;;8.90;99.90;;;;;;5054078;28;20826;-81
2021/10/12 01:33:18;;;;;;;0.77;0.70;;;8.90;99.90;;;;;;5054365;28;20516;-81
2021/10/12 01:35:45;;;;;;;0.60;0.60;;;9.00;99.90;;;;;;5054262;28;20449;-83
2021/10/12 01:38:13;;;;;;;3.10;0.50;;;8.90;99.90;;;;;;5054151;28;20481;-82
2021/10/12 01:40:40;;;;;;;2.53;2.20;;;8.90;99.90;;;;;;5052834;28;20816;-82
2021/10/12 01:43:06;;;;;;;0.70;0.60;;;8.90;99.90;;;;;;5053923;28;20438;-82
2021/10/12 01:45:37;;;;;;;1.10;0.70;;;8.80;99.90;;;;;;5054181;28;20453;-80
2021/10/12 01:48:05;;;;;;;1.07;0.50;;;8.80;99.90;;;;;;5054108;28;20480;-81
2021/10/12 01:50:31;;;;;;;2.00;0.50;;;8.80;99.90;;;;;;5053628;28;20445;-80
2021/10/12 01:52:58;;;;;;;2.67;0.90;;;8.80;99.90;;;;;;5053665;28;20454;-79
2021/10/12 01:55:26;;;;;;;1.07;0.93;;;8.80;99.90;;;;;;5053946;28;20457;-80
2021/10/12 01:57:53;;;;;;;2.37;1.07;;;8.80;99.90;;;;;;5053785;28;20477;-80
2021/10/12 02:00:19;;;;;;;3.83;0.73;;;8.70;99.90;;;;;;5053832;28;20816;-79
2021/10/12 02:02:46;;;;;;;0.50;0.50;;;8.70;99.90;;;;;;5053809;28;20450;-78
2021/10/12 02:05:13;;;;;;;1.63;0.90;;;8.70;99.90;;;;;;5053810;28;20450;-82
2021/10/12 02:07:40;;;;;;;0.93;0.40;;;8.70;99.90;;;;;;5053750;28;20449;-81
2021/10/12 02:10:07;;;;;;;1.23;0.60;;;8.60;99.90;;;;;;5053722;28;20445;-81
2021/10/12 02:12:35;;;;;;;1.13;0.60;;;8.70;99.90;;;;;;5053590;28;20560;-83
2021/10/12 02:15:03;;;;;;;0.60;0.60;;;8.70;99.90;;;;;;5053651;28;20453;-78
2021/10/12 02:17:29;;;;;;;1.33;1.23;;;8.70;99.90;;;;;;5053506;28;20473;-78
2021/10/12 02:19:56;;;;;;;1.27;1.07;;;8.70;99.90;;;;;;5054243;28;20825;-83
2021/10/12 02:22:23;;;;;;;0.47;0.47;;;8.70;99.90;;;;;;5053194;28;20489;-82
2021/10/12 02:24:50;;;;;;;0.43;0.40;;;8.70;99.90;;;;;;5053206;28;20445;-83
2021/10/12 02:27:16;;;;;;;2.10;0.67;;;8.70;99.90;;;;;;5053413;28;20457;-82
2021/10/12 02:29:45;;;;;;;1.30;0.70;;;8.70;99.90;;;;;;5053444;28;20465;-83
2021/10/12 02:32:11;;;;;;;0.97;0.87;;;8.70;99.90;;;;;;5053359;28;20458;-83
2021/10/12 02:34:38;;;;;;;1.00;0.60;;;8.70;99.90;;;;;;5053048;28;20449;-82
2021/10/12 02:37:05;;;;;;;1.33;0.60;;;8.70;99.90;;;;;;5053360;28;20441;-82
2021/10/12 02:39:32;;;;;;;2.63;0.70;;;8.70;99.90;;;;;;5053567;28;20441;-82
2021/10/12 02:41:58;;;;;;;2.70;0.60;;;8.70;99.90;;;;;;5052936;28;20976;-83
2021/10/12 02:44:25;;;;;;;1.10;1.10;;;8.70;99.90;;;;;;5053259;28;20446;-83
2021/10/12 02:46:53;;;;;;;0.80;0.80;;;8.70;99.90;;;;;;5053252;28;20457;-83
2021/10/12 02:49:20;;;;;;;4.67;0.67;;;8.70;99.90;;;;;;5053217;28;20441;-78
2021/10/12 02:51:47;;;;;;;0.80;0.60;;;8.80;99.90;;;;;;5054088;28;20840;-78
2021/10/12 02:54:14;;;;;;;1.07;0.73;;;8.70;99.90;;;;;;5057347;28;20445;-83
2021/10/12 02:56:41;;;;;;;2.27;1.13;;;8.70;99.90;;;;;;5057301;28;20460;-83
2021/10/12 02:59:07;;;;;;;0.50;0.47;;;8.70;99.90;;;;;;5056973;28;20555;-83
2021/10/12 03:01:34;;;;;;;3.03;0.60;;;8.80;99.90;;;;;;5056893;28;20464;-83
2021/10/12 03:04:03;;;;;;;1.93;0.60;;;8.70;99.90;;;;;;5057343;28;20445;-81
2021/10/12 03:06:29;;;;;;;1.03;1.00;;;8.80;99.90;;;;;;5057110;28;20454;-81
2021/10/12 03:08:56;;;;;;;1.63;0.73;;;8.70;99.90;;;;;;5056738;28;20457;-81
2021/10/12 03:11:24;;;;;;;1.70;1.20;;;8.70;99.90;;;;;;5056854;28;20541;-82
2021/10/12 03:13:51;;;;;;;1.60;1.50;;;8.70;99.90;;;;;;5056694;28;20795;-81
2021/10/12 03:16:18;;;;;;;1.33;1.27;;;8.70;99.90;;;;;;5056937;28;20457;-82
2021/10/12 03:18:45;;;;;;;4.33;0.50;;;8.80;99.90;;;;;;5056836;28;20477;-81
2021/10/12 03:21:14;;;;;;;0.50;0.50;;;8.80;99.90;;;;;;5056509;28;21079;-80
2021/10/12 03:23:41;;;;;;;1.17;1.07;;;8.80;99.90;;;;;;5056337;28;20485;-80
2021/10/12 03:26:08;;;;;;;0.70;0.40;;;8.80;99.90;;;;;;5056445;28;20445;-79
2021/10/12 03:28:35;;;;;;;0.40;0.40;;;8.80;99.90;;;;;;5056399;28;20815;-80
2021/10/12 03:31:02;;;;;;;0.50;0.40;;;8.70;99.90;;;;;;5056444;28;20477;-80
2021/10/12 03:33:29;;;;;;;0.73;0.73;;;8.70;99.90;;;;;;5056319;28;20492;-80
2021/10/12 03:35:57;;;;;;;1.83;1.07;;;8.60;99.90;;;;;;5056538;28;20462;-80
2021/10/12 03:38:26;;;;;;;1.20;1.20;;;8.60;99.90;;;;;;5056466;28;20481;-80
2021/10/12 03:40:54;;;;;;;0.73;0.73;;;8.60;99.90;;;;;;5056392;28;20995;-80
2021/10/12 03:43:23;;;;;;;0.40;0.40;;;8.60;99.90;;;;;;5056448;28;20445;-80
2021/10/12 03:45:50;;;;;;;0.40;0.40;;;8.60;99.90;;;;;;5057176;28;20781;-79
2021/10/12 03:48:17;;;;;;;0.87;0.87;;;8.60;99.90;;;;;;5056355;28;20446;-79
2021/10/12 03:50:43;;;;;;;0.33;0.33;;;8.60;99.90;;;;;;5056246;28;20466;-80
2021/10/12 03:53:10;;;;;;;2.03;1.60;;;8.60;99.90;;;;;;5056319;28;20815;-80
2021/10/12 03:55:38;;;;;;;1.20;1.10;;;8.70;99.90;;;;;;5055937;28;20445;-80
2021/10/12 03:58:05;;;;;;;0.90;0.70;;;8.70;99.90;;;;;;5056103;28;20488;-80
2021/10/12 04:00:32;;;;;;;2.80;2.00;;;8.70;99.90;;;;;;5055773;28;20964;-80
2021/10/12 04:02:59;;;;;;;1.17;0.37;;;8.70;99.90;;;;;;5055099;28;20441;-80
2021/10/12 04:05:26;;;;;;;0.73;0.73;;;8.70;99.90;;;;;;5055960;28;20457;-78
2021/10/12 04:07:53;;;;;;;1.13;0.87;;;8.70;99.90;;;;;;5055696;28;20976;-80
2021/10/12 04:10:19;;;;;;;3.43;1.07;;;8.80;99.90;;;;;;5055892;28;20452;-79
2021/10/12 04:12:47;;;;;;;1.10;1.03;;;8.80;99.90;;;;;;5055865;28;20461;-79
2021/10/12 04:15:14;;;;;;;2.33;1.10;;;8.80;99.90;;;;;;5055914;28;20441;-83
2021/10/12 04:17:41;;;;;;;1.50;0.77;;;8.80;99.90;;;;;;5055734;28;20441;-81
2021/10/12 04:20:09;;;;;;;0.80;0.80;;;8.80;99.90;;;;;;5055717;28;20453;-82
2021/10/12 04:22:36;;;;;;;1.47;0.93;;;8.90;99.90;;;;;;5055188;28;20497;-81
2021/10/12 04:25:03;;;;;;;0.47;0.47;;;8.90;99.90;;;;;;5056096;28;20810;-80
2021/10/12 04:27:30;;;;;;;0.67;0.67;;;8.80;99.90;;;;;;5055612;28;20453;-80
2021/10/12 04:29:58;;;;;;;0.90;0.70;;;8.80;99.90;;;;;;5055561;28;20445;-80
2021/10/12 04:32:25;;;;;;;0.80;0.80;;;8.80;99.90;;;;;;5055469;28;20556;-80
2021/10/12 04:34:52;;;;;;;1.17;0.70;;;8.70;99.90;;;;;;5055461;28;20450;-78
2021/10/12 04:37:20;;;;;;;0.90;0.90;;;8.80;99.90;;;;;;5055415;28;20553;-78
2021/10/12 04:39:47;;;;;;;0.97;0.80;;;8.70;99.90;;;;;;5055012;28;20989;-78
2021/10/12 04:42:14;;;;;;;2.83;0.87;;;8.70;99.90;;;;;;5055238;28;20474;-78
2021/10/12 04:44:40;;;;;;;1.30;0.60;;;8.70;99.90;;;;;;5055013;28;20445;-78
2021/10/12 04:47:10;;;;;;;1.40;0.70;;;8.60;99.90;;;;;;5055325;28;20433;-78
2021/10/12 04:49:37;;;;;;;1.17;0.70;;;8.60;99.90;;;;;;5055194;28;20453;-78
2021/10/12 04:52:04;;;;;;;0.40;0.40;;;8.60;99.90;;;;;;5055100;28;20553;-80
2021/10/12 04:54:31;;;;;;;0.80;0.80;;;8.60;99.90;;;;;;5055090;28;20450;-80
2021/10/12 04:56:57;;;;;;;1.30;0.37;;;8.60;99.90;;;;;;5055385;28;20456;-86
2021/10/12 04:59:24;;;;;;;2.73;1.17;;;8.60;99.90;;;;;;5055547;28;20496;-86
2021/10/12 05:01:51;;;;;;;0.63;0.53;;;8.50;99.90;;;;;;5055765;28;20844;-86
2021/10/12 05:04:20;;;;;;;2.43;1.63;;;8.60;99.90;;;;;;5054688;28;20949;-86
2021/10/12 05:06:47;;;;;;;2.20;0.70;;;8.50;99.90;;;;;;5054754;28;20434;-86
2021/10/12 05:09:13;;;;;;;1.07;0.40;;;8.50;99.90;;;;;;5054763;28;20805;-87
2021/10/12 05:11:40;;;;;;;2.10;0.70;;;8.50;99.90;;;;;;5054894;28;20457;-87
2021/10/12 05:14:07;;;;;;;0.40;0.40;;;8.50;99.90;;;;;;5054710;28;20457;-87
2021/10/12 05:16:34;;;;;;;0.40;0.40;;;8.50;99.90;;;;;;5054797;28;20460;-87
2021/10/12 05:19:01;;;;;;;0.57;0.43;;;8.50;99.90;;;;;;5054826;28;20482;-88
2021/10/12 05:21:30;;;;;;;0.70;0.67;;;8.50;99.90;;;;;;5054378;28;20466;-87
2021/10/12 05:23:58;;;;;;;0.40;0.40;;;8.50;99.90;;;;;;5054831;28;20454;-88
2021/10/12 05:26:24;;;;;;;0.57;0.37;;;8.50;99.90;;;;;;5054805;28;20454;-89
2021/10/12 05:28:53;;;;;;;0.30;0.30;;;8.50;99.90;;;;;;5054768;28;20442;-89
2021/10/12 05:31:21;;;;;;;3.03;0.60;;;8.50;99.90;;;;;;5054855;28;20465;-89
2021/10/12 05:33:48;;;;;;;0.47;0.47;;;8.40;99.90;;;;;;5054879;28;20941;-89
2021/10/12 05:36:16;;;;;;;0.43;0.40;;;8.40;99.90;;;;;;5054546;28;20438;-89
2021/10/12 05:38:45;;;;;;;0.80;0.40;;;8.40;99.90;;;;;;5054503;28;20481;-89
2021/10/12 05:41:12;;;;;;;0.40;0.40;;;8.40;99.90;;;;;;5054714;28;20468;-89
2021/10/12 05:43:39;;;;;;;1.90;1.40;;;8.40;99.90;;;;;;5054369;28;20449;-88
2021/10/12 05:46:06;;;;;;;0.63;0.30;;;8.40;99.90;;;;;;5054590;28;20458;-89
2021/10/12 05:48:33;;;;;;;0.63;0.63;;;8.30;99.90;;;;;;5054456;28;20450;-85
2021/10/12 05:51:00;;;;;;;0.40;0.30;;;8.30;99.90;;;;;;5053764;28;20472;-86
2021/10/12 05:53:28;;;;;;;0.40;0.40;;;8.30;99.90;;;;;;5054119;28;20467;-85
2021/10/12 05:56:02;;;;;;;0.40;0.40;;;8.30;99.90;;;;;;5054214;28;20442;-85
2021/10/12 05:58:34;;;;;;;0.60;0.33;;;8.30;99.90;;;;;;5054305;28;20452;-85
2021/10/12 06:01:04;;;;;;;0.30;0.30;;;8.30;99.90;;;;;;5054089;28;20879;-84
2021/10/12 06:03:31;;;;;;;0.70;0.60;;;8.30;99.90;;;;;;5053541;28;20453;-84
2021/10/12 06:05:58;;;;;;;6.70;0.63;;;8.30;99.90;;;;;;5053797;28;20457;-84
2021/10/12 06:08:25;;;;;;;0.93;0.93;;;8.30;99.90;;;;;;5053770;28;20450;-85
2021/10/12 06:10:52;;;;;;;0.40;0.40;;;8.20;99.90;;;;;;5053366;28;20454;-85
2021/10/12 06:13:22;;;;;;;0.43;0.37;;;8.20;99.90;;;;;;5053666;28;20456;-84
2021/10/12 06:15:49;;;;;;;0.87;0.87;;;8.20;99.90;;;;;;5053323;28;20507;-84
2021/10/12 06:18:16;;;;;;;1.57;1.47;;;8.20;99.90;;;;;;5053279;28;20454;-84
2021/10/12 06:20:43;;;;;;;0.40;0.40;;;8.30;99.90;;;;;;5053484;28;20492;-84
2021/10/12 06:23:10;;;;;;;0.80;0.80;;;8.30;99.90;;;;;;5053013;28;21022;-84
2021/10/12 06:25:37;;;;;;;1.13;1.13;;;8.30;99.90;;;;;;5053354;28;20450;-82
2021/10/12 06:28:05;;;;;;;0.90;0.50;;;8.30;99.90;;;;;;5052792;28;20933;-83
2021/10/12 06:30:33;;;;;;;0.87;0.67;;;8.30;99.90;;;;;;5053032;28;20995;-83
2021/10/12 06:33:01;;;;;;;0.30;0.30;;;8.30;99.90;;;;;;5053400;28;20450;-84
2021/10/12 06:35:29;;;;;;;8.53;0.80;;;8.30;99.90;;;;;;5053426;28;20430;-83
2021/10/12 06:37:57;;;;;;;0.30;0.30;;;8.30;99.90;;;;;;5053187;28;20838;-83
2021/10/12 06:40:23;;;;;;;0.60;0.60;;;8.30;99.90;;;;;;5052907;28;20996;-83
2021/10/12 06:42:50;;;;;;;0.40;0.30;;;8.20;99.90;;;;;;5053062;28;20461;-85
2021/10/12 06:45:18;;;;;;;0.40;0.40;;;8.20;99.90;;;;;;5053290;28;20468;-83
2021/10/12 06:47:47;;;;;;;1.30;0.50;;;8.20;99.90;;;;;;5053452;28;20453;-83
2021/10/12 06:50:14;;;;;;;2.73;0.77;;;8.30;99.90;;;;;;5052899;28;20445;-82
2021/10/12 06:52:41;;;;;;;1.37;0.70;;;8.30;99.90;;;;;;5053185;28;20453;-83
2021/10/12 06:55:09;;;;;;;1.83;0.53;;;8.30;99.90;;;;;;5053175;28;20457;-84
2021/10/12 06:57:36;;;;;;;0.87;0.70;;;8.30;99.90;;;;;;5053095;28;20449;-81
2021/10/12 07:00:05;;;;;;;0.30;0.30;;;8.20;99.90;;;;;;5053044;28;20485;-83
2021/10/12 07:02:32;;;;;;;0.53;0.53;;;8.30;99.90;;;;;;5052807;28;20454;-82
2021/10/12 07:05:00;;;;;;;0.33;0.33;;;8.20;99.90;;;;;;5052778;28;20442;-82
2021/10/12 07:07:27;;;;;;;1.10;0.40;;;8.30;99.90;;;;;;5052809;28;20438;-83
2021/10/12 07:09:53;;;;;;;0.30;0.30;;;8.30;99.90;;;;;;5053014;28;20449;-83
2021/10/12 07:12:20;;;;;;;0.73;0.37;;;8.30;99.90;;;;;;5052990;28;20466;-82
2021/10/12 07:14:47;;;;;;;0.30;0.20;;;8.30;99.90;;;;;;5053032;28;20450;-84
2021/10/12 07:17:14;;;;;;;0.60;0.33;;;8.30;99.90;;;;;;5052975;28;20446;-84
2021/10/12 07:19:40;;;;;;;2.77;0.60;;;8.30;99.90;;;;;;5052597;28;20985;-85
2021/10/12 07:22:08;;;;;;;1.37;0.30;;;8.30;99.90;;;;;;5052439;28;20482;-85
2021/10/12 07:24:35;;;;;;;0.93;0.73;;;8.40;99.90;;;;;;5052982;28;20450;-85
2021/10/12 07:27:02;;;;;;;1.33;1.23;;;8.40;99.90;;;;;;5052634;28;20442;-86
2021/10/12 07:29:29;;;;;;;0.50;0.50;;;8.40;99.90;;;;;;5052862;28;20437;-83
2021/10/12 07:31:55;;;;;;;0.60;0.47;;;8.40;99.90;;;;;;5052758;28;20492;-83
2021/10/12 07:34:22;;;;;;;0.70;0.60;;;8.40;99.90;;;;;;5052785;28;20449;-83
2021/10/12 07:36:49;;;;;;;1.43;1.27;;;8.40;99.90;;;;;;5052799;28;20489;-83
2021/10/12 07:39:17;;;;;;;1.23;1.13;;;8.40;99.90;;;;;;5055932;28;20484;-83
2021/10/12 07:41:44;;;;;;;1.73;0.50;;;8.40;99.90;;;;;;5056499;28;20477;-83
2021/10/12 07:44:11;;;;;;;0.73;0.73;;;8.40;99.90;;;;;;5056441;28;20453;-84
2021/10/12 07:46:38;;;;;;;0.70;0.60;;;8.40;99.90;;;;;;5056436;28;20800;-81
2021/10/12 07:49:04;;;;;;;2.40;0.33;;;8.40;99.90;;;;;;5056401;28;20438;-82
2021/10/12 07:51:31;;;;;;;0.50;0.30;;;8.40;99.90;;;;;;5056280;28;20473;-83
2021/10/12 07:54:00;;;;;;;0.40;0.40;;;8.40;99.90;;;;;;5056289;28;20434;-83
2021/10/12 07:56:36;;;;;;;1.30;0.80;;;8.40;99.90;;;;;;5055815;28;21031;-83
2021/10/12 07:59:04;;;;;;;1.67;1.57;;;8.40;99.90;;;;;;5056178;28;20483;-82
2021/10/12 08:01:33;;;;;;;0.50;0.30;;;8.40;99.90;;;;;;5056093;28;20480;-81
2021/10/12 08:04:00;;;;;;;0.57;0.50;;;8.40;99.90;;;;;;5056150;28;20450;-79
2021/10/12 08:06:27;;;;;;;3.13;0.43;;;8.50;99.90;;;;;;5055929;28;20503;-80
2021/10/12 08:08:54;;;;;;;0.30;0.30;;;8.50;99.90;;;;;;5055723;28;20452;-82
2021/10/12 08:11:24;;;;;;;0.80;0.80;;;8.40;99.90;;;;;;5055596;28;21008;-79
2021/10/12 08:13:55;;;;;;;0.93;0.73;;;8.50;99.90;;;;;;5055858;28;20798;-80
2021/10/12 08:16:29;;;;;;;0.43;0.43;;;8.50;99.90;;;;;;5055911;28;20434;-80
2021/10/12 08:18:55;;;;;;;0.50;0.50;;;8.50;99.90;;;;;;5055470;28;20448;-81
2021/10/12 08:21:22;;;;;;;0.30;0.30;;;8.50;99.90;;;;;;5056389;28;20485;-84
2021/10/12 08:23:50;;;;;;;0.40;0.30;;;8.50;99.90;;;;;;5055307;28;20478;-83
2021/10/12 08:26:16;;;;;;;0.30;0.30;;;8.50;99.90;;;;;;5055622;28;20438;-84
2021/10/12 08:28:43;;;;;;;0.50;0.50;;;8.50;99.90;;;;;;5055413;28;20436;-85
2021/10/12 08:31:11;;;;;;;0.40;0.37;;;8.50;99.90;;;;;;5055601;28;20458;-84
2021/10/12 08:33:38;;;;;;;0.40;0.30;;;8.50;99.90;;;;;;5055895;28;20437;-85
2021/10/12 08:36:05;;;;;;;2.80;0.63;;;8.60;99.90;;;;;;5055344;28;20434;-85
2021/10/12 08:38:34;;;;;;;0.53;0.53;;;8.70;99.90;;;;;;5055531;28;20450;-84
2021/10/12 08:41:05;;;;;;;0.50;0.30;;;8.80;99.90;;;;;;5055272;28;20486;-85
2021/10/12 08:43:32;;;;;;;0.40;0.33;;;8.80;99.90;;;;;;5055466;28;20431;-86
2021/10/12 08:46:00;;;;;;;0.70;0.50;;;8.90;99.90;;;;;;5055398;28;20457;-84
2021/10/12 08:48:31;;;;;;;0.57;0.57;;;8.90;99.90;;;;;;5055041;28;20438;-85
2021/10/12 08:50:59;;;;;;;0.30;0.23;;;9.10;99.90;;;;;;5054606;28;20474;-85
2021/10/12 08:53:27;;;;;;;0.40;0.30;;;9.20;99.90;;;;;;5054884;28;20446;-85
2021/10/12 08:55:54;;;;;;;0.37;0.33;;;9.30;99.90;;;;;;5055117;28;20478;-85
2021/10/12 08:58:20;;;;;;;0.37;0.33;;;9.40;99.90;;;;;;5055339;28;20442;-85
2021/10/12 09:00:47;;;;;;;0.50;0.50;;;9.50;99.90;;;;;;5054667;28;20500;-85
2021/10/12 09:03:19;;;;;;;0.50;0.50;;;9.60;99.90;;;;;;5054764;28;20913;-85
2021/10/12 09:05:53;;;;;;;0.40;0.30;;;9.70;99.90;;;;;;5055033;28;20551;-85
2021/10/12 09:08:25;;;;;;;0.60;0.40;;;9.70;99.90;;;;;;5054744;28;20914;-86
2021/10/12 09:10:52;;;;;;;0.50;0.50;;;9.70;99.90;;;;;;5055004;28;20494;-85
2021/10/12 09:13:19;;;;;;;0.40;0.40;;;9.80;99.90;;;;;;5054617;28;20480;-85
2021/10/12 09:16:04;;;;;;;0.37;0.37;;;9.90;99.90;;;;;;5055732;28;20430;-85
2021/10/12 09:18:52;;;;;;;1.63;0.73;;;10.00;99.90;;;;;;5054962;28;20414;-85
2021/10/12 09:21:23;;;;;;;0.70;0.40;;;9.90;99.90;;;;;;5054827;28;20490;-85
2021/10/12 09:23:51;;;;;;;0.30;0.30;;;10.10;99.90;;;;;;5054405;28;20976;-86
2021/10/12 09:26:22;;;;;;;0.50;0.40;;;10.00;99.90;;;;;;5055144;28;20430;-85
2021/10/12 09:28:50;;;;;;;0.70;0.60;;;10.00;99.90;;;;;;5054750;28;20430;-85
2021/10/12 09:31:17;;;;;;;1.13;0.40;;;10.10;99.90;;;;;;5054678;28;20470;-86
2021/10/12 09:33:48;;;;;;;1.37;0.50;;;10.00;99.90;;;;;;5054439;28;20874;-86
2021/10/12 09:36:35;;;;;;;1.00;0.43;;;10.00;99.90;;;;;;5054319;28;20421;-85
2021/10/12 09:39:03;;;;;;;0.80;0.80;;;10.00;99.90;;;;;;5054458;28;20442;-85
2021/10/12 09:41:30;;;;;;;3.90;2.10;;;10.10;99.90;;;;;;5053891;28;21016;-85
2021/10/12 09:44:11;;;;;;;0.40;0.40;;;10.30;99.90;;;;;;5054325;28;20427;-85
2021/10/12 09:46:40;;;;;;;0.70;0.43;;;10.50;99.90;;;;;;5054283;28;20521;-85
2021/10/12 09:49:16;;;;;;;0.70;0.70;;;10.70;99.90;;;;;;5054172;28;20437;-85
2021/10/12 09:51:55;;;;;;;0.70;0.47;;;10.90;99.90;;;;;;5054130;28;20461;-84
2021/10/12 09:54:22;;;;;;;0.50;0.50;;;11.10;99.90;;;;;;5054096;28;20434;-83
2021/10/12 09:56:49;;;;;;;0.80;0.80;;;11.30;99.90;;;;;;5054074;28;20563;-84
2021/10/12 09:59:17;;;;;;;0.83;0.80;;;11.40;99.90;;;;;;5053965;28;20512;-84
2021/10/12 10:01:46;;;;;;;0.90;0.70;;;11.60;99.90;;;;;;5052801;28;20481;-84
2021/10/12 10:04:16;;;;;;;1.13;0.60;;;11.80;99.90;;;;;;5053912;28;20430;-84
2021/10/12 10:06:46;;;;;;;1.63;0.90;;;11.80;99.90;;;;;;5053890;28;20411;-83
2021/10/12 10:09:14;;;;;;;3.23;0.93;;;11.80;99.90;;;;;;5053776;28;20434;-83
2021/10/12 10:11:43;;;;;;;1.00;0.70;;;11.60;99.90;;;;;;5053638;28;20480;-83
2021/10/12 10:14:12;;;;;;;0.60;0.60;;;11.40;99.90;;;;;;5053941;28;20426;-83
2021/10/12 10:16:41;;;;;;;3.70;1.23;;;11.30;99.90;;;;;;5053625;28;20434;-84
2021/10/12 10:19:12;;;;;;;0.60;0.47;;;11.10;99.90;;;;;;5053681;28;20441;-84
2021/10/12 10:21:41;;;;;;;0.60;0.60;;;11.00;99.90;;;;;;5053212;28;20490;-84
2021/10/12 10:24:11;;;;;;;1.13;0.50;;;10.80;99.90;;;;;;5053520;28;20488;-84
2021/10/12 10:26:39;;;;;;;1.00;0.90;;;10.70;99.90;;;;;;5053834;28;20489;-84
2021/10/12 10:29:24;;;;;;;0.43;0.40;;;10.50;99.90;;;;;;5053581;28;20433;-84
2021/10/12 10:31:53;;;;;;;0.97;0.40;;;10.40;99.90;;;;;;5053481;28;20544;-85
2021/10/12 10:34:31;;;;;;;0.97;0.87;;;10.20;99.90;;;;;;5053498;28;20441;-85
2021/10/12 10:37:30;;;;;;;1.23;1.13;;;10.10;99.90;;;;;;5053529;28;20437;-85
2021/10/12 10:40:15;;;;;;;0.40;0.40;;;9.90;99.90;;;;;;5053289;28;20911;-85
2021/10/12 10:42:58;;;;;;;0.40;0.40;;;9.90;99.90;;;;;;5048618;28;20465;-85
2021/10/12 10:45:47;;;;;;;0.57;0.40;;;9.90;99.90;;;;;;5053386;28;20755;-84
2021/10/12 10:48:16;;;;;;;1.53;0.77;;;10.00;99.90;;;;;;5053333;28;20410;-85
2021/10/12 10:50:43;;;;;;;3.13;0.43;;;10.00;99.90;;;;;;5053269;28;20900;-84
2021/10/12 10:53:12;;;;;;;0.70;0.50;;;10.00;99.90;;;;;;5053310;28;20772;-85
2021/10/12 10:55:42;;;;;;;0.50;0.50;;;10.20;99.90;;;;;;5052968;28;20914;-83
2021/10/12 10:58:13;;;;;;;1.67;0.90;;;10.30;99.90;;;;;;5052938;28;20429;-84
2021/10/12 11:00:45;;;;;;;0.50;0.40;;;10.50;99.90;;;;;;5053630;28;20485;-84
2021/10/12 11:03:38;;;;;;;1.00;0.50;;;10.70;99.90;;;;;;5053188;28;20411;-84
2021/10/12 11:06:12;;;;;;;0.30;0.30;;;10.60;99.90;;;;;;5053158;28;20462;-83
2021/10/12 11:08:40;;;;;;;5.63;0.70;;;10.50;99.90;;;;;;5053173;28;20441;-85
2021/10/12 11:11:09;;;;;;;0.50;0.50;;;10.50;99.90;;;;;;5053181;28;20515;-84
2021/10/12 11:13:38;;;;;;;1.67;0.80;;;10.50;99.90;;;;;;5055386;28;20909;-84
2021/10/12 11:16:07;;;;;;;3.00;1.00;;;10.60;99.90;;;;;;5057633;28;20440;-83
2021/10/12 11:18:34;;;;;;;0.40;0.30;;;10.60;99.90;;;;;;5057060;28;20406;-83
2021/10/12 11:21:03;;;;;;;0.97;0.50;;;10.60;99.90;;;;;;5056612;28;20485;-84
2021/10/12 11:23:33;;;;;;;0.80;0.80;;;10.70;99.90;;;;;;5056643;28;20835;-83
2021/10/12 11:26:05;;;;;;;0.40;0.40;;;10.70;99.90;;;;;;5056581;28;20476;-83
2021/10/12 11:28:35;;;;;;;2.87;0.40;;;10.80;99.90;;;;;;5056848;28;20434;-83
2021/10/12 11:31:05;;;;;;;0.97;0.40;;;11.00;99.90;;;;;;5056693;28;20469;-82
2021/10/12 11:33:40;;;;;;;1.00;0.67;;;11.10;99.90;;;;;;5056571;28;20411;-82
2021/10/12 11:36:09;;;;;;;1.20;0.47;;;11.20;99.90;;;;;;5056537;28;20452;-82
2021/10/12 11:38:38;;;;;;;2.10;0.50;;;11.30;99.90;;;;;;5057361;28;20442;-82
2021/10/12 11:41:23;;;;;;;0.73;0.57;;;11.20;99.90;;;;;;5056417;28;20556;-82
2021/10/12 11:43:54;;;;;;;0.43;0.43;;;11.20;99.90;;;;;;5056581;28;20449;-82
2021/10/12 11:46:23;;;;;;;0.50;0.30;;;11.20;99.90;;;;;;5056518;28;20789;-82
2021/10/12 11:48:50;;;;;;;0.90;0.57;;;11.10;99.90;;;;;;5056444;28;20441;-82
2021/10/12 11:51:22;;;;;;;1.17;1.17;;;11.20;99.90;;;;;;5056012;28;21003;-82
2021/10/12 11:53:51;;;;;;;0.30;0.30;;;11.20;99.90;;;;;;5056408;28;20430;-82
2021/10/12 11:56:20;;;;;;;0.40;0.30;;;11.20;99.90;;;;;;5056312;28;20438;-82
2021/10/12 11:58:47;;;;;;;1.30;0.60;;;11.20;99.90;;;;;;5056804;28;20430;-82
2021/10/12 12:01:26;;;;;;;0.77;0.40;;;11.20;99.90;;;;;;5056073;28;20488;-81
2021/10/12 12:03:53;;;;;;;0.43;0.40;;;11.20;99.90;;;;;;5055924;28;20757;-82
2021/10/12 12:06:23;;;;;;;0.30;0.20;;;11.20;99.90;;;;;;5056215;28;20867;-82
2021/10/12 12:08:53;;;;;;;0.60;0.60;;;11.30;99.90;;;;;;5056115;28;20430;-81
2021/10/12 12:11:24;;;;;;;0.50;0.40;;;11.40;99.90;;;;;;5055686;28;20454;-81
2021/10/12 12:13:51;;;;;;;0.50;0.50;;;11.40;99.90;;;;;;5055946;28;20434;-81
2021/10/12 12:16:20;;;;;;;0.50;0.50;;;11.50;99.90;;;;;;5055951;28;20918;-81
2021/10/12 12:18:46;;;;;;;0.40;0.33;;;11.60;99.90;;;;;;5055888;28;20430;-80
2021/10/12 12:21:13;;;;;;;0.40;0.40;;;11.50;99.90;;;;;;5055434;28;20478;-81
2021/10/12 12:23:42;;;;;;;0.47;0.40;;;11.60;99.90;;;;;;5054937;28;20477;-81
2021/10/12 12:26:10;;;;;;;0.40;0.30;;;11.60;99.90;;;;;;5055272;28;20457;-81
2021/10/12 12:28:38;;;;;;;0.70;0.50;;;11.70;99.90;;;;;;5055740;28;20434;-81
2021/10/12 12:31:23;;;;;;;0.47;0.47;;;11.70;99.90;;;;;;5055947;28;20462;-81
2021/10/12 12:33:51;;;;;;;0.97;0.70;;;11.70;99.90;;;;;;5055607;28;20437;-81
2021/10/12 12:36:19;;;;;;;0.50;0.50;;;11.70;99.90;;;;;;5055307;28;20948;-83
2021/10/12 12:38:47;;;;;;;0.80;0.80;;;11.70;99.90;;;;;;5055215;28;20944;-83
2021/10/12 12:41:19;;;;;;;0.60;0.60;;;11.80;99.90;;;;;;5055362;28;20488;-83
2021/10/12 12:43:55;;;;;;;1.47;0.60;;;11.80;99.90;;;;;;5055178;28;20882;-82
2021/10/12 12:46:24;;;;;;;0.87;0.70;;;11.80;99.90;;;;;;5055043;28;20936;-82
2021/10/12 12:49:09;;;;;;;1.07;0.50;;;11.80;99.90;;;;;;5055883;28;20446;-81
2021/10/12 12:51:39;;;;;;;0.80;0.70;;;11.90;99.90;;;;;;5055149;28;20481;-80
2021/10/12 12:54:06;;;;;;;0.50;0.50;;;11.80;99.90;;;;;;5055226;28;20441;-81
2021/10/12 12:56:35;;;;;;;1.33;0.77;;;12.00;99.90;;;;;;5055614;28;20446;-81
2021/10/12 12:59:08;;;;;;;0.50;0.40;;;12.00;99.90;;;;;;5055135;28;20447;-81
2021/10/12 13:01:37;;;;;;;1.50;0.87;;;12.00;99.90;;;;;;5054628;28;21028;-82